sensor_id;sensor_type;location;lat;lon;timestamp;temperature;humidity
43671;DHT22;29267;50.906;7.248;2023-08-12T00:01:39;20.70;99.90
43671;DHT22;29267;50.906;7.248;2023-08-12T00:04:05;20.70;99.90
43671;DHT22;29267;50.906;7.248;2023-08-12T00:06:30;20.70;99.90
43671;DHT22;29267;50.906;7.248;2023-08-12T00:08:56;20.70;99.90
43671;DHT22;29267;50.906;7.248;2023-08-12T00:11:22;20.60;99.90
43671;DHT22;29267;50.906;7.248;2023-08-12T00:13:47;20.60;99.90
43671;DHT22;29267;50.906;7.248;2023-08-12T00:16:13;20.60;99.90
43671;DHT22;29267;50.906;7.248;2023-08-12T00:18:38;20.50;99.90
43671;DHT22;29267;50.906;7.248;2023-08-12T00:21:07;20.50;99.90
43671;DHT22;29267;50.906;7.248;2023-08-12T00:23:38;20.50;99.90
43671;DHT22;29267;50.906;7.248;2023-08-12T00:26:04;20.50;99.90
43671;DHT22;29267;50.906;7.248;2023-08-12T00:28:30;20.50;99.90
43671;DHT22;29267;50.906;7.248;2023-08-12T00:30:55;20.50;99.90
43671;DHT22;29267;50.906;7.248;2023-08-12T00:33:21;20.50;99.90
43671;DHT22;29267;50.906;7.248;2023-08-12T00:35:47;20.50;99.90
43671;DHT22;29267;50.906;7.248;2023-08-12T00:38:12;20.50;99.90
43671;DHT22;29267;50.906;7.248;2023-08-12T00:40:38;20.50;99.90
43671;DHT22;29267;50.906;7.248;2023-08-12T00:43:03;20.40;99.90
43671;DHT22;29267;50.906;7.248;2023-08-12T00:45:29;20.30;99.90
43671;DHT22;29267;50.906;7.248;2023-08-12T00:47:55;20.30;99.90
43671;DHT22;29267;50.906;7.248;2023-08-12T00:50:21;20.20;99.90
43671;DHT22;29267;50.906;7.248;2023-08-12T00:52:47;20.20;99.90
43671;DHT22;29267;50.906;7.248;2023-08-12T00:55:14;20.20;99.90
43671;DHT22;29267;50.906;7.248;2023-08-12T00:57:39;20.20;99.90
43671;DHT22;29267;50.906;7.248;2023-08-12T01:00:06;20.20;99.90
43671;DHT22;29267;50.906;7.248;2023-08-12T01:02:32;20.10;99.90
43671;DHT22;29267;50.906;7.248;2023-08-12T01:04:58;20.10;99.90
43671;DHT22;29267;50.906;7.248;2023-08-12T01:07:24;20.10;99.90
43671;DHT22;29267;50.906;7.248;2023-08-12T01:09:49;20.10;99.90
43671;DHT22;29267;50.906;7.248;2023-08-12T01:12:36;20.20;99.90
43671;DHT22;29267;50.906;7.248;2023-08-12T01:15:10;20.20;99.90
43671;DHT22;29267;50.906;7.248;2023-08-12T01:17:38;20.10;99.90
43671;DHT22;29267;50.906;7.248;2023-08-12T01:20:08;20.10;99.90
43671;DHT22;29267;50.906;7.248;2023-08-12T01:22:35;20.10;99.90
43671;DHT22;29267;50.906;7.248;2023-08-12T01:25:05;20.10;99.90
43671;DHT22;29267;50.906;7.248;2023-08-12T01:27:30;20.00;99.90
43671;DHT22;29267;50.906;7.248;2023-08-12T01:29:56;20.00;99.90
43671;DHT22;29267;50.906;7.248;2023-08-12T01:32:49;19.90;99.90
43671;DHT22;29267;50.906;7.248;2023-08-12T01:35:30;19.90;99.90
43671;DHT22;29267;50.906;7.248;2023-08-12T01:37:58;19.90;99.90
43671;DHT22;29267;50.906;7.248;2023-08-12T01:40:25;19.90;99.90
43671;DHT22;29267;50.906;7.248;2023-08-12T01:42:52;19.90;99.90
43671;DHT22;29267;50.906;7.248;2023-08-12T01:45:18;19.90;99.90
43671;DHT22;29267;50.906;7.248;2023-08-12T01:47:44;19.90;99.90
43671;DHT22;29267;50.906;7.248;2023-08-12T01:50:10;19.90;99.90
43671;DHT22;29267;50.906;7.248;2023-08-12T01:52:36;19.90;99.90
43671;DHT22;29267;50.906;7.248;2023-08-12T01:55:01;19.90;99.90
43671;DHT22;29267;50.906;7.248;2023-08-12T01:57:27;19.90;99.90
43671;DHT22;29267;50.906;7.248;2023-08-12T01:59:53;19.80;99.90
43671;DHT22;29267;50.906;7.248;2023-08-12T02:02:18;19.80;99.90
43671;DHT22;29267;50.906;7.248;2023-08-12T02:04:44;19.80;99.90
43671;DHT22;29267;50.906;7.248;2023-08-12T02:07:10;19.80;99.90
43671;DHT22;29267;50.906;7.248;2023-08-12T02:09:35;19.80;99.90
43671;DHT22;29267;50.906;7.248;2023-08-12T02:12:01;19.80;99.90
43671;DHT22;29267;50.906;7.248;2023-08-12T02:14:26;19.80;99.90
43671;DHT22;29267;50.906;7.248;2023-08-12T02:16:52;19.70;99.90
43671;DHT22;29267;50.906;7.248;2023-08-12T02:19:17;19.70;99.90
43671;DHT22;29267;50.906;7.248;2023-08-12T02:21:43;19.70;99.90
43671;DHT22;29267;50.906;7.248;2023-08-12T02:24:09;19.70;99.90
43671;DHT22;29267;50.906;7.248;2023-08-12T02:26:35;19.70;99.90
43671;DHT22;29267;50.906;7.248;2023-08-12T02:29:00;19.70;99.90
43671;DHT22;29267;50.906;7.248;2023-08-12T02:31:26;19.60;99.90
43671;DHT22;29267;50.906;7.248;2023-08-12T02:33:52;19.70;99.90
43671;DHT22;29267;50.906;7.248;2023-08-12T02:36:17;19.60;99.90
43671;DHT22;29267;50.906;7.248;2023-08-12T02:38:43;19.60;99.90
43671;DHT22;29267;50.906;7.248;2023-08-12T02:41:08;19.60;99.90
43671;DHT22;29267;50.906;7.248;2023-08-12T02:43:34;19.60;99.90
43671;DHT22;29267;50.906;7.248;2023-08-12T02:46:00;19.60;99.90
43671;DHT22;29267;50.906;7.248;2023-08-12T02:48:26;19.60;99.90
43671;DHT22;29267;50.906;7.248;2023-08-12T02:50:51;19.60;99.90
43671;DHT22;29267;50.906;7.248;2023-08-12T02:53:17;19.60;99.90
43671;DHT22;29267;50.906;7.248;2023-08-12T02:55:44;19.60;99.90
43671;DHT22;29267;50.906;7.248;2023-08-12T02:58:10;19.60;99.90
43671;DHT22;29267;50.906;7.248;2023-08-12T03:00:36;19.70;99.90
43671;DHT22;29267;50.906;7.248;2023-08-12T03:03:01;19.70;99.90
43671;DHT22;29267;50.906;7.248;2023-08-12T03:05:27;19.70;99.90
43671;DHT22;29267;50.906;7.248;2023-08-12T03:07:53;19.70;99.90
43671;DHT22;29267;50.906;7.248;2023-08-12T03:10:18;19.60;99.90
43671;DHT22;29267;50.906;7.248;2023-08-12T03:12:44;19.60;99.90
43671;DHT22;29267;50.906;7.248;2023-08-12T03:15:10;19.60;99.90
43671;DHT22;29267;50.906;7.248;2023-08-12T03:17:36;19.60;99.90
43671;DHT22;29267;50.906;7.248;2023-08-12T03:20:05;19.60;99.90
43671;DHT22;29267;50.906;7.248;2023-08-12T03:22:31;19.60;99.90
43671;DHT22;29267;50.906;7.248;2023-08-12T03:24:56;19.50;99.90
43671;DHT22;29267;50.906;7.248;2023-08-12T03:27:22;19.60;99.90
43671;DHT22;29267;50.906;7.248;2023-08-12T03:29:48;19.60;99.90
43671;DHT22;29267;50.906;7.248;2023-08-12T03:32:13;19.60;99.90
43671;DHT22;29267;50.906;7.248;2023-08-12T03:34:39;19.60;99.90
43671;DHT22;29267;50.906;7.248;2023-08-12T03:37:04;19.60;99.90
43671;DHT22;29267;50.906;7.248;2023-08-12T03:39:30;19.60;99.90
43671;DHT22;29267;50.906;7.248;2023-08-12T03:41:56;19.50;99.90
43671;DHT22;29267;50.906;7.248;2023-08-12T03:44:22;19.50;99.90
43671;DHT22;29267;50.906;7.248;2023-08-12T03:46:47;19.60;99.90
43671;DHT22;29267;50.906;7.248;2023-08-12T03:49:13;19.60;99.90
43671;DHT22;29267;50.906;7.248;2023-08-12T03:51:39;19.50;99.90
43671;DHT22;29267;50.906;7.248;2023-08-12T03:54:04;19.50;99.90
43671;DHT22;29267;50.906;7.248;2023-08-12T03:56:30;19.50;99.90
43671;DHT22;29267;50.906;7.248;2023-08-12T03:58:56;19.60;99.90
43671;DHT22;29267;50.906;7.248;2023-08-12T04:01:21;19.50;99.90
43671;DHT22;29267;50.906;7.248;2023-08-12T04:03:47;19.50;99.90
43671;DHT22;29267;50.906;7.248;2023-08-12T04:06:12;19.50;99.90
43671;DHT22;29267;50.906;7.248;2023-08-12T04:08:38;19.50;99.90
43671;DHT22;29267;50.906;7.248;2023-08-12T04:11:04;19.50;99.90
43671;DHT22;29267;50.906;7.248;2023-08-12T04:13:30;19.50;99.90
43671;DHT22;29267;50.906;7.248;2023-08-12T04:15:56;19.40;99.90
43671;DHT22;29267;50.906;7.248;2023-08-12T04:18:21;19.40;99.90
43671;DHT22;29267;50.906;7.248;2023-08-12T04:20:49;19.40;99.90
43671;DHT22;29267;50.906;7.248;2023-08-12T04:23:15;19.40;99.90
43671;DHT22;29267;50.906;7.248;2023-08-12T04:25:43;19.40;99.90
43671;DHT22;29267;50.906;7.248;2023-08-12T04:28:11;19.30;99.90
43671;DHT22;29267;50.906;7.248;2023-08-12T04:30:43;19.30;99.90
43671;DHT22;29267;50.906;7.248;2023-08-12T04:33:09;19.30;99.90
43671;DHT22;29267;50.906;7.248;2023-08-12T04:35:35;19.20;99.90
43671;DHT22;29267;50.906;7.248;2023-08-12T04:38:00;19.20;99.90
43671;DHT22;29267;50.906;7.248;2023-08-12T04:40:26;19.20;99.90
43671;DHT22;29267;50.906;7.248;2023-08-12T04:42:51;19.20;99.90
43671;DHT22;29267;50.906;7.248;2023-08-12T04:45:17;19.20;99.90
43671;DHT22;29267;50.906;7.248;2023-08-12T04:47:42;19.30;99.90
43671;DHT22;29267;50.906;7.248;2023-08-12T04:50:08;19.30;99.90
43671;DHT22;29267;50.906;7.248;2023-08-12T04:52:34;19.20;99.90
43671;DHT22;29267;50.906;7.248;2023-08-12T04:54:59;19.20;99.90
43671;DHT22;29267;50.906;7.248;2023-08-12T04:57:25;19.30;99.90
43671;DHT22;29267;50.906;7.248;2023-08-12T04:59:51;19.20;99.90
43671;DHT22;29267;50.906;7.248;2023-08-12T05:02:16;19.20;99.90
43671;DHT22;29267;50.906;7.248;2023-08-12T05:04:48;19.30;99.90
43671;DHT22;29267;50.906;7.248;2023-08-12T05:07:13;19.30;99.90
43671;DHT22;29267;50.906;7.248;2023-08-12T05:09:39;19.40;99.90
43671;DHT22;29267;50.906;7.248;2023-08-12T05:12:05;19.50;99.90
43671;DHT22;29267;50.906;7.248;2023-08-12T05:14:31;19.70;99.90
43671;DHT22;29267;50.906;7.248;2023-08-12T05:16:56;20.20;99.90
43671;DHT22;29267;50.906;7.248;2023-08-12T05:19:22;20.50;99.90
43671;DHT22;29267;50.906;7.248;2023-08-12T05:21:48;20.90;99.90
43671;DHT22;29267;50.906;7.248;2023-08-12T05:24:13;22.00;99.90
43671;DHT22;29267;50.906;7.248;2023-08-12T05:26:42;23.30;99.90
43671;DHT22;29267;50.906;7.248;2023-08-12T05:29:08;24.50;99.90
43671;DHT22;29267;50.906;7.248;2023-08-12T05:31:33;24.70;99.90
43671;DHT22;29267;50.906;7.248;2023-08-12T05:33:59;25.00;99.90
43671;DHT22;29267;50.906;7.248;2023-08-12T05:36:24;25.60;99.90
43671;DHT22;29267;50.906;7.248;2023-08-12T05:38:51;26.20;99.90
43671;DHT22;29267;50.906;7.248;2023-08-12T05:41:16;26.10;99.90
43671;DHT22;29267;50.906;7.248;2023-08-12T05:43:42;26.00;99.90
43671;DHT22;29267;50.906;7.248;2023-08-12T05:46:07;25.80;99.90
43671;DHT22;29267;50.906;7.248;2023-08-12T05:48:33;25.70;99.90
43671;DHT22;29267;50.906;7.248;2023-08-12T05:50:58;25.10;99.90
43671;DHT22;29267;50.906;7.248;2023-08-12T05:53:24;24.40;99.90
43671;DHT22;29267;50.906;7.248;2023-08-12T05:55:50;23.80;99.90
43671;DHT22;29267;50.906;7.248;2023-08-12T05:58:15;23.30;99.90
43671;DHT22;29267;50.906;7.248;2023-08-12T06:00:41;22.90;99.90
43671;DHT22;29267;50.906;7.248;2023-08-12T06:03:10;22.60;99.90
43671;DHT22;29267;50.906;7.248;2023-08-12T06:05:37;22.30;99.90
43671;DHT22;29267;50.906;7.248;2023-08-12T06:08:02;22.00;99.90
43671;DHT22;29267;50.906;7.248;2023-08-12T06:10:28;21.80;99.90
43671;DHT22;29267;50.906;7.248;2023-08-12T06:12:53;21.60;99.90
43671;DHT22;29267;50.906;7.248;2023-08-12T06:15:19;21.40;99.90
43671;DHT22;29267;50.906;7.248;2023-08-12T06:17:45;21.20;99.90
43671;DHT22;29267;50.906;7.248;2023-08-12T06:20:11;21.00;99.90
43671;DHT22;29267;50.906;7.248;2023-08-12T06:22:37;20.80;99.90
43671;DHT22;29267;50.906;7.248;2023-08-12T06:25:03;20.60;99.90
43671;DHT22;29267;50.906;7.248;2023-08-12T06:27:28;20.50;99.90
43671;DHT22;29267;50.906;7.248;2023-08-12T06:29:54;20.40;99.90
43671;DHT22;29267;50.906;7.248;2023-08-12T06:32:19;20.30;99.90
43671;DHT22;29267;50.906;7.248;2023-08-12T06:34:45;20.30;99.90
43671;DHT22;29267;50.906;7.248;2023-08-12T06:37:11;20.20;99.90
43671;DHT22;29267;50.906;7.248;2023-08-12T06:39:36;20.20;99.90
43671;DHT22;29267;50.906;7.248;2023-08-12T06:42:02;20.10;99.90
43671;DHT22;29267;50.906;7.248;2023-08-12T06:44:29;20.10;99.90
43671;DHT22;29267;50.906;7.248;2023-08-12T06:46:54;20.00;99.90
43671;DHT22;29267;50.906;7.248;2023-08-12T06:49:20;20.00;99.90
43671;DHT22;29267;50.906;7.248;2023-08-12T06:51:46;20.00;99.90
43671;DHT22;29267;50.906;7.248;2023-08-12T06:54:11;20.00;99.90
43671;DHT22;29267;50.906;7.248;2023-08-12T06:56:37;20.10;99.90
43671;DHT22;29267;50.906;7.248;2023-08-12T06:59:02;20.10;99.90
43671;DHT22;29267;50.906;7.248;2023-08-12T07:01:28;20.10;99.90
43671;DHT22;29267;50.906;7.248;2023-08-12T07:03:54;20.20;99.90
43671;DHT22;29267;50.906;7.248;2023-08-12T07:06:19;20.20;99.90
43671;DHT22;29267;50.906;7.248;2023-08-12T07:08:45;20.30;99.90
43671;DHT22;29267;50.906;7.248;2023-08-12T07:11:10;20.40;99.90
43671;DHT22;29267;50.906;7.248;2023-08-12T07:13:36;20.50;99.90
43671;DHT22;29267;50.906;7.248;2023-08-12T07:16:01;20.60;99.90
43671;DHT22;29267;50.906;7.248;2023-08-12T07:18:27;20.90;99.90
43671;DHT22;29267;50.906;7.248;2023-08-12T07:20:54;21.10;99.90
43671;DHT22;29267;50.906;7.248;2023-08-12T07:23:19;21.30;99.90
43671;DHT22;29267;50.906;7.248;2023-08-12T07:25:48;21.50;99.90
43671;DHT22;29267;50.906;7.248;2023-08-12T07:28:13;21.70;99.90
43671;DHT22;29267;50.906;7.248;2023-08-12T07:30:39;22.00;99.90
43671;DHT22;29267;50.906;7.248;2023-08-12T07:33:05;22.30;99.90
43671;DHT22;29267;50.906;7.248;2023-08-12T07:35:30;22.60;99.90
43671;DHT22;29267;50.906;7.248;2023-08-12T07:37:56;22.70;99.90
43671;DHT22;29267;50.906;7.248;2023-08-12T07:40:21;22.70;99.90
43671;DHT22;29267;50.906;7.248;2023-08-12T07:42:47;22.70;99.90
43671;DHT22;29267;50.906;7.248;2023-08-12T07:45:13;22.90;99.90
43671;DHT22;29267;50.906;7.248;2023-08-12T07:47:38;22.80;99.90
43671;DHT22;29267;50.906;7.248;2023-08-12T07:50:05;22.70;99.90
43671;DHT22;29267;50.906;7.248;2023-08-12T07:52:30;22.80;99.90
43671;DHT22;29267;50.906;7.248;2023-08-12T07:54:56;22.60;99.90
43671;DHT22;29267;50.906;7.248;2023-08-12T07:57:22;22.70;99.90
43671;DHT22;29267;50.906;7.248;2023-08-12T07:59:52;22.80;99.90
43671;DHT22;29267;50.906;7.248;2023-08-12T08:02:18;22.90;99.90
43671;DHT22;29267;50.906;7.248;2023-08-12T08:04:44;23.20;99.90
43671;DHT22;29267;50.906;7.248;2023-08-12T08:07:10;23.40;99.90
43671;DHT22;29267;50.906;7.248;2023-08-12T08:09:36;24.20;99.90
43671;DHT22;29267;50.906;7.248;2023-08-12T08:12:02;24.50;99.90
43671;DHT22;29267;50.906;7.248;2023-08-12T08:14:28;25.20;99.90
43671;DHT22;29267;50.906;7.248;2023-08-12T08:16:53;26.30;99.90
43671;DHT22;29267;50.906;7.248;2023-08-12T08:19:19;26.90;99.90
43671;DHT22;29267;50.906;7.248;2023-08-12T08:21:45;26.80;99.90
43671;DHT22;29267;50.906;7.248;2023-08-12T08:24:10;26.50;99.90
43671;DHT22;29267;50.906;7.248;2023-08-12T08:26:40;26.60;99.90
43671;DHT22;29267;50.906;7.248;2023-08-12T08:29:06;26.80;99.90
43671;DHT22;29267;50.906;7.248;2023-08-12T08:31:32;27.30;99.90
43671;DHT22;29267;50.906;7.248;2023-08-12T08:33:58;27.40;99.90
43671;DHT22;29267;50.906;7.248;2023-08-12T08:36:23;27.40;99.90
43671;DHT22;29267;50.906;7.248;2023-08-12T08:38:50;27.80;99.90
43671;DHT22;29267;50.906;7.248;2023-08-12T08:41:16;27.10;99.90
43671;DHT22;29267;50.906;7.248;2023-08-12T08:43:42;26.60;99.90
43671;DHT22;29267;50.906;7.248;2023-08-12T08:46:14;26.40;99.90
43671;DHT22;29267;50.906;7.248;2023-08-12T08:48:44;26.20;99.90
43671;DHT22;29267;50.906;7.248;2023-08-12T08:51:11;26.00;99.90
43671;DHT22;29267;50.906;7.248;2023-08-12T08:53:41;26.00;99.90
43671;DHT22;29267;50.906;7.248;2023-08-12T08:56:07;26.50;99.90
43671;DHT22;29267;50.906;7.248;2023-08-12T08:58:37;27.10;99.90
43671;DHT22;29267;50.906;7.248;2023-08-12T09:01:03;27.50;99.90
43671;DHT22;29267;50.906;7.248;2023-08-12T09:03:29;28.90;99.90
43671;DHT22;29267;50.906;7.248;2023-08-12T09:05:56;29.50;99.90
43671;DHT22;29267;50.906;7.248;2023-08-12T09:08:23;29.70;99.90
43671;DHT22;29267;50.906;7.248;2023-08-12T09:10:50;29.00;99.90
43671;DHT22;29267;50.906;7.248;2023-08-12T09:13:15;29.00;99.90
43671;DHT22;29267;50.906;7.248;2023-08-12T09:15:43;28.10;99.90
43671;DHT22;29267;50.906;7.248;2023-08-12T09:18:09;27.20;99.90
43671;DHT22;29267;50.906;7.248;2023-08-12T09:20:35;26.20;99.90
43671;DHT22;29267;50.906;7.248;2023-08-12T09:23:01;25.60;99.90
43671;DHT22;29267;50.906;7.248;2023-08-12T09:25:28;25.00;99.90
43671;DHT22;29267;50.906;7.248;2023-08-12T09:28:00;24.60;99.90
43671;DHT22;29267;50.906;7.248;2023-08-12T09:30:29;24.30;99.90
43671;DHT22;29267;50.906;7.248;2023-08-12T09:33:03;24.10;99.90
43671;DHT22;29267;50.906;7.248;2023-08-12T09:35:37;24.00;99.90
43671;DHT22;29267;50.906;7.248;2023-08-12T09:38:04;24.20;99.90
43671;DHT22;29267;50.906;7.248;2023-08-12T09:40:32;24.30;99.90
43671;DHT22;29267;50.906;7.248;2023-08-12T09:42:59;24.30;99.90
43671;DHT22;29267;50.906;7.248;2023-08-12T09:45:25;24.40;99.90
43671;DHT22;29267;50.906;7.248;2023-08-12T09:47:52;24.60;99.90
43671;DHT22;29267;50.906;7.248;2023-08-12T09:50:18;24.90;99.90
43671;DHT22;29267;50.906;7.248;2023-08-12T09:52:46;25.10;99.90
43671;DHT22;29267;50.906;7.248;2023-08-12T09:55:15;25.90;99.90
43671;DHT22;29267;50.906;7.248;2023-08-12T09:57:43;26.70;99.90
43671;DHT22;29267;50.906;7.248;2023-08-12T10:00:10;26.90;99.90
43671;DHT22;29267;50.906;7.248;2023-08-12T10:02:43;27.50;99.90
43671;DHT22;29267;50.906;7.248;2023-08-12T10:05:12;27.60;99.90
43671;DHT22;29267;50.906;7.248;2023-08-12T10:07:39;27.20;99.90
43671;DHT22;29267;50.906;7.248;2023-08-12T10:10:05;27.00;99.90
43671;DHT22;29267;50.906;7.248;2023-08-12T10:12:33;26.90;99.90
43671;DHT22;29267;50.906;7.248;2023-08-12T10:15:00;26.50;99.90
43671;DHT22;29267;50.906;7.248;2023-08-12T10:17:25;26.20;99.90
43671;DHT22;29267;50.906;7.248;2023-08-12T10:19:56;25.80;99.90
43671;DHT22;29267;50.906;7.248;2023-08-12T10:22:25;25.20;99.90
43671;DHT22;29267;50.906;7.248;2023-08-12T10:24:51;25.00;99.90
43671;DHT22;29267;50.906;7.248;2023-08-12T10:27:17;24.70;99.90
43671;DHT22;29267;50.906;7.248;2023-08-12T10:29:43;24.20;99.90
43671;DHT22;29267;50.906;7.248;2023-08-12T10:32:11;24.10;99.90
43671;DHT22;29267;50.906;7.248;2023-08-12T10:34:36;23.90;99.90
43671;DHT22;29267;50.906;7.248;2023-08-12T10:37:02;23.70;99.90
43671;DHT22;29267;50.906;7.248;2023-08-12T10:39:31;23.60;99.90
43671;DHT22;29267;50.906;7.248;2023-08-12T10:41:57;23.60;99.90
43671;DHT22;29267;50.906;7.248;2023-08-12T10:44:37;23.40;99.90
43671;DHT22;29267;50.906;7.248;2023-08-12T10:47:08;23.40;99.90
43671;DHT22;29267;50.906;7.248;2023-08-12T10:49:43;23.60;99.90
43671;DHT22;29267;50.906;7.248;2023-08-12T10:52:29;23.50;99.90
43671;DHT22;29267;50.906;7.248;2023-08-12T10:55:15;23.70;99.90
43671;DHT22;29267;50.906;7.248;2023-08-12T10:57:41;24.10;99.90
43671;DHT22;29267;50.906;7.248;2023-08-12T11:00:11;24.70;99.90
43671;DHT22;29267;50.906;7.248;2023-08-12T11:02:38;25.50;99.90
43671;DHT22;29267;50.906;7.248;2023-08-12T11:05:09;26.10;99.90
43671;DHT22;29267;50.906;7.248;2023-08-12T11:07:44;26.60;99.90
43671;DHT22;29267;50.906;7.248;2023-08-12T11:12:41;27.20;99.90
43671;DHT22;29267;50.906;7.248;2023-08-12T11:15:08;27.10;99.90
43671;DHT22;29267;50.906;7.248;2023-08-12T11:17:39;27.10;99.90
43671;DHT22;29267;50.906;7.248;2023-08-12T11:20:06;26.80;99.90
43671;DHT22;29267;50.906;7.248;2023-08-12T11:22:34;26.50;99.90
43671;DHT22;29267;50.906;7.248;2023-08-12T11:25:02;26.00;99.90
43671;DHT22;29267;50.906;7.248;2023-08-12T11:27:28;25.90;99.90
43671;DHT22;29267;50.906;7.248;2023-08-12T11:29:53;25.30;99.90
43671;DHT22;29267;50.906;7.248;2023-08-12T11:32:19;25.00;99.90
43671;DHT22;29267;50.906;7.248;2023-08-12T11:34:44;24.90;99.90
43671;DHT22;29267;50.906;7.248;2023-08-12T11:37:10;24.70;99.90
43671;DHT22;29267;50.906;7.248;2023-08-12T11:39:36;24.40;99.90
43671;DHT22;29267;50.906;7.248;2023-08-12T11:42:02;24.40;99.90
43671;DHT22;29267;50.906;7.248;2023-08-12T11:44:28;24.30;99.90
43671;DHT22;29267;50.906;7.248;2023-08-12T11:46:54;24.20;99.90
43671;DHT22;29267;50.906;7.248;2023-08-12T11:49:20;24.20;99.90
43671;DHT22;29267;50.906;7.248;2023-08-12T11:51:47;24.50;99.90
43671;DHT22;29267;50.906;7.248;2023-08-12T11:54:14;24.70;99.90
43671;DHT22;29267;50.906;7.248;2023-08-12T11:56:40;24.70;99.90
43671;DHT22;29267;50.906;7.248;2023-08-12T11:59:06;25.00;99.90
43671;DHT22;29267;50.906;7.248;2023-08-12T12:01:32;25.00;99.90
43671;DHT22;29267;50.906;7.248;2023-08-12T12:04:00;25.00;99.90
43671;DHT22;29267;50.906;7.248;2023-08-12T12:06:36;25.00;99.90
43671;DHT22;29267;50.906;7.248;2023-08-12T12:09:06;24.90;99.90
43671;DHT22;29267;50.906;7.248;2023-08-12T12:11:35;25.10;99.90
43671;DHT22;29267;50.906;7.248;2023-08-12T12:14:06;25.00;99.90
43671;DHT22;29267;50.906;7.248;2023-08-12T12:19:04;25.50;99.90
43671;DHT22;29267;50.906;7.248;2023-08-12T12:21:38;25.70;99.90
43671;DHT22;29267;50.906;7.248;2023-08-12T12:24:05;25.90;99.90
43671;DHT22;29267;50.906;7.248;2023-08-12T12:26:32;26.20;99.90
43671;DHT22;29267;50.906;7.248;2023-08-12T12:28:57;26.10;99.90
43671;DHT22;29267;50.906;7.248;2023-08-12T12:31:23;26.00;99.90
43671;DHT22;29267;50.906;7.248;2023-08-12T12:33:48;25.60;99.90
43671;DHT22;29267;50.906;7.248;2023-08-12T12:36:14;25.30;99.90
43671;DHT22;29267;50.906;7.248;2023-08-12T12:38:40;25.20;99.90
43671;DHT22;29267;50.906;7.248;2023-08-12T12:41:05;25.00;99.90
43671;DHT22;29267;50.906;7.248;2023-08-12T12:43:31;25.00;99.90
43671;DHT22;29267;50.906;7.248;2023-08-12T12:45:56;25.00;99.90
43671;DHT22;29267;50.906;7.248;2023-08-12T12:48:22;25.00;99.90
43671;DHT22;29267;50.906;7.248;2023-08-12T12:50:47;25.00;99.90
43671;DHT22;29267;50.906;7.248;2023-08-12T12:53:13;25.10;99.90
43671;DHT22;29267;50.906;7.248;2023-08-12T12:55:38;25.20;99.90
43671;DHT22;29267;50.906;7.248;2023-08-12T12:58:04;25.00;99.90
43671;DHT22;29267;50.906;7.248;2023-08-12T13:00:30;25.00;99.90
43671;DHT22;29267;50.906;7.248;2023-08-12T13:02:56;25.10;99.90
43671;DHT22;29267;50.906;7.248;2023-08-12T13:05:21;25.00;99.90
43671;DHT22;29267;50.906;7.248;2023-08-12T13:07:47;25.00;99.90
43671;DHT22;29267;50.906;7.248;2023-08-12T13:10:12;24.90;99.90
43671;DHT22;29267;50.906;7.248;2023-08-12T13:12:38;24.90;99.90
43671;DHT22;29267;50.906;7.248;2023-08-12T13:15:04;25.10;99.90
43671;DHT22;29267;50.906;7.248;2023-08-12T13:17:29;25.00;99.90
43671;DHT22;29267;50.906;7.248;2023-08-12T13:19:55;25.00;99.90
43671;DHT22;29267;50.906;7.248;2023-08-12T13:22:20;25.20;99.90
43671;DHT22;29267;50.906;7.248;2023-08-12T13:24:46;25.40;99.90
43671;DHT22;29267;50.906;7.248;2023-08-12T13:27:11;25.90;99.90
43671;DHT22;29267;50.906;7.248;2023-08-12T13:29:38;25.90;99.90
43671;DHT22;29267;50.906;7.248;2023-08-12T13:32:04;26.00;99.90
43671;DHT22;29267;50.906;7.248;2023-08-12T13:34:29;26.00;99.90
43671;DHT22;29267;50.906;7.248;2023-08-12T13:36:55;26.10;99.90
43671;DHT22;29267;50.906;7.248;2023-08-12T13:39:21;25.90;99.90
43671;DHT22;29267;50.906;7.248;2023-08-12T13:41:47;25.80;99.90
43671;DHT22;29267;50.906;7.248;2023-08-12T13:44:12;25.80;99.90
43671;DHT22;29267;50.906;7.248;2023-08-12T13:46:38;25.80;99.90
43671;DHT22;29267;50.906;7.248;2023-08-12T13:49:04;25.90;99.90
43671;DHT22;29267;50.906;7.248;2023-08-12T13:51:30;25.90;99.90
43671;DHT22;29267;50.906;7.248;2023-08-12T13:53:56;25.70;99.90
43671;DHT22;29267;50.906;7.248;2023-08-12T13:56:22;25.50;99.90
43671;DHT22;29267;50.906;7.248;2023-08-12T13:58:47;25.20;99.90
43671;DHT22;29267;50.906;7.248;2023-08-12T14:01:13;25.00;99.90
43671;DHT22;29267;50.906;7.248;2023-08-12T14:03:39;24.70;99.90
43671;DHT22;29267;50.906;7.248;2023-08-12T14:06:05;24.50;99.90
43671;DHT22;29267;50.906;7.248;2023-08-12T14:08:31;24.70;99.90
43671;DHT22;29267;50.906;7.248;2023-08-12T14:10:56;24.60;99.90
43671;DHT22;29267;50.906;7.248;2023-08-12T14:13:22;24.80;99.90
43671;DHT22;29267;50.906;7.248;2023-08-12T14:15:47;24.90;99.90
43671;DHT22;29267;50.906;7.248;2023-08-12T14:18:13;24.90;99.90
43671;DHT22;29267;50.906;7.248;2023-08-12T14:20:38;25.00;99.90
43671;DHT22;29267;50.906;7.248;2023-08-12T14:23:04;24.90;99.90
43671;DHT22;29267;50.906;7.248;2023-08-12T14:25:30;25.00;99.90
43671;DHT22;29267;50.906;7.248;2023-08-12T14:27:55;24.70;99.90
43671;DHT22;29267;50.906;7.248;2023-08-12T14:30:24;24.70;99.90
43671;DHT22;29267;50.906;7.248;2023-08-12T14:32:51;24.80;99.90
43671;DHT22;29267;50.906;7.248;2023-08-12T14:35:17;24.80;99.90
43671;DHT22;29267;50.906;7.248;2023-08-12T14:37:43;24.90;99.90
43671;DHT22;29267;50.906;7.248;2023-08-12T14:40:09;24.80;99.90
43671;DHT22;29267;50.906;7.248;2023-08-12T14:42:35;24.80;99.90
43671;DHT22;29267;50.906;7.248;2023-08-12T14:45:01;24.80;99.90
43671;DHT22;29267;50.906;7.248;2023-08-12T14:47:26;24.90;99.90
43671;DHT22;29267;50.906;7.248;2023-08-12T14:49:52;25.10;99.90
43671;DHT22;29267;50.906;7.248;2023-08-12T14:52:19;25.20;99.90
43671;DHT22;29267;50.906;7.248;2023-08-12T14:54:46;25.20;99.90
43671;DHT22;29267;50.906;7.248;2023-08-12T14:57:12;25.30;99.90
43671;DHT22;29267;50.906;7.248;2023-08-12T14:59:37;25.20;99.90
43671;DHT22;29267;50.906;7.248;2023-08-12T15:02:04;25.20;99.90
43671;DHT22;29267;50.906;7.248;2023-08-12T15:04:29;25.20;99.90
43671;DHT22;29267;50.906;7.248;2023-08-12T15:06:55;25.50;99.90
43671;DHT22;29267;50.906;7.248;2023-08-12T15:09:21;25.60;99.90
43671;DHT22;29267;50.906;7.248;2023-08-12T15:11:46;25.80;99.90
43671;DHT22;29267;50.906;7.248;2023-08-12T15:14:12;26.20;99.90
43671;DHT22;29267;50.906;7.248;2023-08-12T15:16:37;26.20;99.90
43671;DHT22;29267;50.906;7.248;2023-08-12T15:19:03;26.00;99.90
43671;DHT22;29267;50.906;7.248;2023-08-12T15:21:29;25.90;99.90
43671;DHT22;29267;50.906;7.248;2023-08-12T15:23:55;25.60;99.90
43671;DHT22;29267;50.906;7.248;2023-08-12T15:26:20;25.40;99.90
43671;DHT22;29267;50.906;7.248;2023-08-12T15:28:48;25.00;99.90
43671;DHT22;29267;50.906;7.248;2023-08-12T15:31:14;24.80;99.90